createdAt,value
2023-03-02T06:32:34.436Z,-0.60
2023-03-02T06:35:02.996Z,-0.60
2023-03-02T06:37:30.678Z,-0.50
2023-03-02T06:39:58.844Z,-0.50
2023-03-02T06:42:27.544Z,-0.50
2023-03-02T06:44:55.161Z,-0.40
2023-03-02T06:47:23.551Z,-0.30
2023-03-02T06:49:50.979Z,-0.10
2023-03-02T06:52:18.260Z,-0.10
2023-03-02T06:54:45.621Z,0.00
2023-03-02T06:57:12.887Z,0.10
2023-03-02T06:59:40.141Z,0.20
2023-03-02T07:02:09.753Z,0.40
2023-03-02T07:04:37.654Z,0.50
2023-03-02T07:07:05.649Z,0.50
2023-03-02T07:09:34.730Z,0.70
2023-03-02T07:12:02.921Z,0.90
2023-03-02T07:14:30.747Z,0.90
2023-03-02T07:17:00.311Z,1.20
2023-03-02T07:19:28.080Z,0.90
2023-03-02T07:21:56.681Z,1.00
2023-03-02T07:24:27.661Z,1.10
2023-03-02T07:26:55.034Z,1.40
2023-03-02T07:29:23.082Z,1.30
2023-03-02T07:31:56.919Z,1.20
2023-03-02T07:34:24.999Z,1.30
2023-03-02T07:36:53.755Z,1.30
2023-03-02T07:39:22.335Z,1.40
2023-03-02T07:41:50.619Z,1.40
2023-03-02T07:44:18.146Z,1.40
2023-03-02T07:46:46.881Z,1.60
2023-03-02T07:49:14.337Z,1.50
2023-03-02T07:51:41.842Z,1.30
2023-03-02T07:54:10.348Z,1.40
2023-03-02T07:56:37.967Z,1.40
2023-03-02T07:59:05.698Z,1.70
2023-03-02T08:01:33.434Z,1.90
2023-03-02T08:04:02.224Z,1.90
2023-03-02T08:06:30.246Z,1.70
2023-03-02T08:09:00.430Z,2.70
2023-03-02T08:11:28.135Z,1.70
2023-03-02T08:13:55.775Z,2.00
2023-03-02T08:16:29.750Z,1.90
2023-03-02T08:18:59.658Z,2.00
2023-03-02T08:21:31.871Z,2.20
2023-03-02T08:24:00.034Z,2.30
2023-03-02T08:26:27.475Z,2.20
2023-03-02T08:28:54.762Z,2.10
2023-03-02T08:31:22.566Z,2.00
2023-03-02T08:33:50.849Z,1.70
2023-03-02T08:36:20.654Z,2.10
2023-03-02T08:38:49.393Z,2.10
2023-03-02T08:41:20.284Z,2.50
2023-03-02T08:43:48.496Z,2.90
2023-03-02T08:46:18.924Z,3.10
2023-03-02T08:48:47.417Z,3.10
2023-03-02T08:51:17.886Z,3.60
2023-03-02T08:53:48.471Z,2.90
2023-03-02T08:56:24.425Z,3.20
2023-03-02T08:58:54.565Z,3.30
2023-03-02T09:01:32.032Z,3.50
2023-03-02T09:04:08.595Z,3.90
2023-03-02T09:06:42.823Z,3.70
2023-03-02T09:09:15.023Z,4.00
2023-03-02T09:11:47.486Z,5.60
2023-03-02T09:14:15.972Z,3.90
2023-03-02T09:16:44.220Z,4.30
2023-03-02T09:19:14.679Z,4.40
2023-03-02T09:21:44.620Z,4.00
2023-03-02T09:24:16.925Z,4.10
2023-03-02T09:26:49.103Z,4.10
2023-03-02T09:29:19.249Z,4.60
2023-03-02T09:31:47.847Z,4.40
2023-03-02T09:34:15.762Z,3.80
2023-03-02T09:36:44.613Z,4.50
2023-03-02T09:39:12.967Z,4.40
2023-03-02T09:42:07.415Z,4.80
2023-03-02T09:45:14.271Z,5.00
2023-03-02T09:47:50.624Z,5.10
2023-03-02T09:50:34.630Z,5.20
2023-03-02T09:53:12.536Z,5.10
2023-03-02T09:58:19.040Z,4.90
2023-03-02T10:00:48.072Z,5.10
2023-03-02T10:03:35.965Z,5.00
2023-03-02T10:06:04.025Z,5.30
2023-03-02T10:08:35.362Z,5.60
2023-03-02T10:11:06.180Z,5.70
2023-03-02T10:13:57.123Z,5.70
2023-03-02T10:16:56.026Z,5.10
2023-03-02T10:19:28.889Z,5.70
2023-03-02T10:22:17.457Z,6.30
2023-03-02T10:25:22.983Z,6.50
2023-03-02T10:28:02.718Z,6.00
2023-03-02T10:30:38.750Z,6.20
2023-03-02T10:33:16.981Z,6.40
2023-03-02T10:35:52.742Z,6.70
2023-03-02T10:38:25.379Z,6.50
2023-03-02T10:41:02.463Z,6.10
2023-03-02T10:43:45.255Z,5.70
2023-03-02T10:46:15.253Z,6.20
2023-03-02T10:48:54.532Z,6.70
2023-03-02T10:51:35.654Z,7.30
2023-03-02T10:54:14.346Z,7.50
2023-03-02T10:56:50.442Z,7.10
2023-03-02T10:59:39.098Z,7.00
2023-03-02T11:02:23.564Z,7.00
2023-03-02T11:05:19.890Z,6.80
2023-03-02T11:07:57.866Z,6.40
2023-03-02T11:10:34.288Z,6.70
2023-03-02T11:13:06.245Z,6.90
2023-03-02T11:15:43.761Z,6.40
2023-03-02T11:18:16.178Z,6.40
2023-03-02T11:20:50.364Z,6.50
2023-03-02T11:23:31.662Z,6.80
2023-03-02T11:26:22.063Z,7.30
2023-03-02T11:29:03.146Z,6.50
2023-03-02T11:31:55.989Z,7.20
2023-03-02T11:34:27.645Z,6.20
2023-03-02T11:37:02.752Z,5.90
2023-03-02T11:39:54.608Z,6.60
2023-03-02T11:42:32.836Z,7.30
2023-03-02T11:45:28.268Z,8.20
2023-03-02T11:48:03.734Z,9.20
2023-03-02T11:50:34.227Z,9.40
2023-03-02T11:53:11.864Z,9.40
2023-03-02T11:55:46.906Z,9.50
2023-03-02T11:58:20.994Z,7.70
2023-03-02T12:00:49.582Z,7.20
2023-03-02T12:03:23.387Z,7.30
2023-03-02T12:05:53.699Z,7.60
2023-03-02T12:08:20.813Z,7.60
2023-03-02T12:10:57.232Z,7.80
2023-03-02T12:13:35.518Z,7.90
2023-03-02T12:16:04.185Z,8.10
2023-03-02T12:18:46.553Z,7.30
2023-03-02T12:21:24.580Z,7.50
2023-03-02T12:23:51.968Z,7.80
2023-03-02T12:26:21.899Z,7.80
2023-03-02T12:28:59.045Z,7.80
2023-03-02T12:31:27.621Z,8.00
2023-03-02T12:33:55.249Z,7.90
2023-03-02T12:36:31.997Z,7.80
2023-03-02T12:39:21.265Z,7.70
2023-03-02T12:42:07.734Z,7.60
2023-03-02T12:44:38.625Z,7.80
2023-03-02T12:47:16.261Z,7.60
2023-03-02T12:49:47.295Z,7.30
2023-03-02T12:52:33.892Z,9.40
2023-03-02T12:55:19.411Z,7.60
2023-03-02T12:57:58.953Z,7.70
2023-03-02T13:00:34.545Z,7.40
2023-03-02T13:03:11.179Z,7.60
2023-03-02T13:05:41.349Z,7.60
2023-03-02T13:08:13.611Z,7.40
2023-03-02T13:10:42.452Z,7.40
2023-03-02T13:13:27.268Z,7.40
2023-03-02T13:16:06.455Z,7.40
2023-03-02T13:18:40.009Z,7.50
2023-03-02T13:21:10.695Z,7.50
2023-03-02T13:23:46.431Z,7.50
2023-03-02T13:26:33.501Z,7.40
2023-03-02T13:29:15.922Z,7.50
2023-03-02T13:31:45.995Z,7.70
2023-03-02T13:34:25.413Z,7.80
2023-03-02T13:36:54.200Z,7.70
2023-03-02T13:39:31.811Z,7.70
2023-03-02T13:42:02.130Z,7.80
2023-03-02T13:44:34.537Z,7.70
2023-03-02T13:47:03.518Z,7.70
2023-03-02T13:49:33.273Z,7.80
2023-03-02T13:52:16.504Z,7.70
2023-03-02T13:54:45.162Z,7.80
2023-03-02T13:57:22.473Z,7.90
2023-03-02T13:59:49.758Z,7.90
2023-03-02T14:02:25.795Z,7.80
2023-03-02T14:04:53.792Z,7.90
2023-03-02T14:07:21.237Z,7.90
2023-03-02T14:09:48.962Z,7.80
2023-03-02T14:12:31.421Z,7.90
2023-03-02T14:15:01.097Z,8.00
2023-03-02T14:17:28.562Z,8.00
2023-03-02T14:19:56.555Z,8.10
2023-03-02T14:22:26.423Z,8.30
2023-03-02T14:24:54.351Z,8.20
2023-03-02T14:27:25.829Z,8.20
2023-03-02T14:29:53.877Z,8.10
2023-03-02T14:32:21.628Z,8.10
2023-03-02T14:34:49.212Z,8.20
2023-03-02T14:37:21.939Z,8.20
2023-03-02T14:39:56.855Z,8.10
2023-03-02T14:42:24.389Z,8.10
2023-03-02T14:44:52.521Z,8.10
2023-03-02T14:47:19.818Z,8.10
2023-03-02T14:49:48.748Z,8.00
2023-03-02T14:52:18.702Z,8.00
2023-03-02T14:54:53.937Z,8.10
2023-03-02T14:57:27.316Z,8.00
2023-03-02T14:59:56.173Z,8.00
2023-03-02T15:02:26.913Z,7.90
2023-03-02T15:04:57.147Z,7.90
2023-03-02T15:07:26.952Z,7.90
2023-03-02T15:09:58.302Z,7.80
2023-03-02T15:12:26.453Z,7.80
2023-03-02T15:14:53.823Z,7.80
2023-03-02T15:17:21.021Z,7.80
2023-03-02T15:19:48.777Z,7.80
2023-03-02T15:22:16.851Z,7.80
2023-03-02T15:24:45.009Z,7.90
2023-03-02T15:27:14.115Z,7.80
2023-03-02T15:29:47.222Z,7.80
2023-03-02T15:32:15.362Z,7.80
2023-03-02T15:34:43.651Z,7.80
2023-03-02T15:37:11.866Z,7.90
2023-03-02T15:39:39.268Z,7.90
2023-03-02T15:42:06.761Z,7.80
2023-03-02T15:44:34.151Z,7.80
2023-03-02T15:47:02.046Z,7.80
2023-03-02T15:49:32.009Z,7.80
2023-03-02T15:51:59.360Z,7.80
2023-03-02T15:54:27.459Z,7.70
2023-03-02T15:56:54.823Z,7.60
2023-03-02T15:59:27.934Z,7.50
2023-03-02T16:01:59.759Z,7.50
2023-03-02T16:04:28.682Z,7.50
2023-03-02T16:06:56.832Z,7.50
2023-03-02T16:09:25.443Z,7.40
2023-03-02T16:11:53.191Z,7.40
2023-03-02T16:14:20.968Z,7.40
2023-03-02T16:16:48.607Z,7.30
2023-03-02T16:19:19.240Z,7.20
2023-03-02T16:21:48.292Z,7.10
2023-03-02T16:24:17.349Z,7.10
2023-03-02T16:26:45.734Z,7.00
2023-03-02T16:29:13.959Z,6.90
2023-03-02T16:31:43.001Z,6.80
2023-03-02T16:34:11.790Z,6.80
2023-03-02T16:36:40.758Z,6.70
2023-03-02T16:39:09.295Z,6.70
2023-03-02T16:41:38.185Z,6.60
2023-03-02T16:44:05.742Z,6.40
2023-03-02T16:46:36.651Z,6.30
2023-03-02T16:49:04.862Z,6.20
2023-03-02T16:51:32.310Z,6.10
2023-03-02T16:53:59.637Z,6.10
2023-03-02T16:56:27.098Z,6.00
2023-03-02T16:58:55.551Z,5.90
